createdAt,value
2022-10-20T00:01:20.269Z,50.90
2022-10-20T00:03:47.945Z,51.00
2022-10-20T00:06:17.201Z,51.00
2022-10-20T00:08:44.527Z,51.00
2022-10-20T00:11:13.004Z,51.10
2022-10-20T00:13:42.420Z,51.10
2022-10-20T00:16:09.509Z,51.20
2022-10-20T00:18:36.616Z,51.20
2022-10-20T00:21:13.553Z,51.30
2022-10-20T00:23:40.334Z,51.60
2022-10-20T00:26:10.340Z,51.30
2022-10-20T00:28:37.213Z,51.40
2022-10-20T00:31:05.361Z,51.40
2022-10-20T00:33:32.747Z,51.40
2022-10-20T00:36:04.078Z,51.40
2022-10-20T00:38:31.232Z,51.40
2022-10-20T00:41:00.005Z,51.40
2022-10-20T00:43:45.258Z,51.40
2022-10-20T00:46:15.077Z,51.90
2022-10-20T00:48:45.473Z,51.50
2022-10-20T00:51:16.329Z,51.70
2022-10-20T00:53:44.861Z,51.80
2022-10-20T00:56:11.956Z,51.80
2022-10-20T00:58:39.291Z,51.80
2022-10-20T01:01:06.063Z,51.70
2022-10-20T01:03:50.989Z,51.80
2022-10-20T01:06:20.122Z,52.50
2022-10-20T01:08:47.205Z,51.90
2022-10-20T01:11:21.493Z,52.00
2022-10-20T01:14:09.734Z,52.30
2022-10-20T01:16:58.559Z,52.40
2022-10-20T01:19:49.364Z,52.40
2022-10-20T01:22:37.578Z,52.60
2022-10-20T01:25:09.997Z,52.80
2022-10-20T01:27:43.816Z,52.30
2022-10-20T01:30:18.093Z,52.30
2022-10-20T01:33:12.642Z,52.40
2022-10-20T01:35:54.272Z,53.00
2022-10-20T01:38:23.730Z,52.50
2022-10-20T01:41:11.659Z,52.30
2022-10-20T01:43:41.984Z,52.60
2022-10-20T01:46:11.756Z,52.50
2022-10-20T01:48:40.463Z,52.70
2022-10-20T01:51:09.690Z,52.60
2022-10-20T01:53:37.040Z,52.70
2022-10-20T01:56:05.013Z,52.60
2022-10-20T01:58:37.935Z,52.70
2022-10-20T02:01:31.145Z,53.00
2022-10-20T02:04:03.318Z,53.10
2022-10-20T02:06:46.579Z,52.90
2022-10-20T02:09:27.246Z,53.30
2022-10-20T02:12:04.525Z,53.50
2022-10-20T02:14:33.190Z,53.20
2022-10-20T02:17:05.609Z,52.90
2022-10-20T02:19:37.593Z,53.10
2022-10-20T02:22:06.364Z,53.20
2022-10-20T02:24:36.480Z,53.10
2022-10-20T02:27:10.572Z,53.20
2022-10-20T02:29:44.425Z,53.30
2022-10-20T02:32:12.656Z,53.30
2022-10-20T02:34:42.296Z,53.30
2022-10-20T02:37:09.851Z,53.40
2022-10-20T02:39:36.798Z,53.40
2022-10-20T02:42:03.485Z,53.40
2022-10-20T02:44:30.673Z,53.40
2022-10-20T02:46:57.386Z,53.40
2022-10-20T02:49:25.081Z,53.50
2022-10-20T02:51:52.156Z,53.50
2022-10-20T02:54:18.893Z,53.40
2022-10-20T02:56:45.503Z,53.60
2022-10-20T02:59:14.560Z,53.60
2022-10-20T03:01:41.609Z,53.60
2022-10-20T03:04:08.613Z,53.50
2022-10-20T03:06:35.705Z,53.60
2022-10-20T03:09:02.580Z,53.70
2022-10-20T03:11:30.376Z,53.60
2022-10-20T03:13:57.043Z,53.70
2022-10-20T03:16:23.907Z,53.60
2022-10-20T03:18:50.716Z,53.70
2022-10-20T03:21:17.375Z,53.80
2022-10-20T03:23:43.988Z,53.80
2022-10-20T03:26:11.932Z,53.80
2022-10-20T03:28:39.886Z,53.90
2022-10-20T03:31:07.016Z,53.90
2022-10-20T03:33:33.993Z,53.90
2022-10-20T03:36:00.645Z,53.90
2022-10-20T03:38:27.577Z,54.00
2022-10-20T03:40:54.350Z,54.00
2022-10-20T03:43:21.297Z,54.00
2022-10-20T03:45:47.945Z,54.10
2022-10-20T03:48:15.092Z,54.10
2022-10-20T03:50:42.923Z,54.10
2022-10-20T03:53:14.029Z,54.00
2022-10-20T03:55:40.698Z,54.20
2022-10-20T03:58:07.338Z,54.10
2022-10-20T04:00:34.018Z,54.10
2022-10-20T04:03:00.876Z,54.10
2022-10-20T04:05:27.478Z,54.10
2022-10-20T04:07:54.242Z,54.20
2022-10-20T04:10:21.215Z,54.20
2022-10-20T04:12:47.840Z,54.30
2022-10-20T04:15:14.578Z,54.40
2022-10-20T04:17:41.326Z,54.40
2022-10-20T04:20:08.229Z,54.40
2022-10-20T04:22:35.358Z,54.40
2022-10-20T04:25:02.245Z,54.40
2022-10-20T04:27:30.702Z,54.50
2022-10-20T04:29:57.280Z,54.50
2022-10-20T04:32:24.553Z,54.50
2022-10-20T04:34:51.413Z,54.50
2022-10-20T04:37:18.290Z,54.50
2022-10-20T04:39:44.974Z,54.60
2022-10-20T04:42:12.314Z,55.10
2022-10-20T04:44:39.037Z,54.60
2022-10-20T04:47:05.786Z,54.70
2022-10-20T04:49:32.573Z,54.80
2022-10-20T04:52:01.148Z,54.80
2022-10-20T04:54:28.858Z,54.80
2022-10-20T04:56:56.077Z,54.80
2022-10-20T04:59:23.138Z,54.80
2022-10-20T05:01:49.822Z,54.80
2022-10-20T05:04:21.302Z,54.80
2022-10-20T05:06:49.199Z,54.80
2022-10-20T05:09:16.534Z,54.80
2022-10-20T05:11:43.433Z,54.80
2022-10-20T05:14:10.490Z,54.90
2022-10-20T05:16:37.113Z,55.00
2022-10-20T05:19:04.380Z,55.40
2022-10-20T05:21:31.692Z,55.00
2022-10-20T05:24:01.101Z,55.10
2022-10-20T05:26:29.792Z,55.20
2022-10-20T05:28:56.389Z,55.30
2022-10-20T05:31:23.804Z,55.20
2022-10-20T05:33:53.090Z,55.30
2022-10-20T05:36:22.892Z,55.40
2022-10-20T05:38:51.969Z,55.40
2022-10-20T05:41:22.057Z,55.40
2022-10-20T05:43:57.195Z,55.40
2022-10-20T05:46:25.809Z,55.50
2022-10-20T05:48:55.063Z,55.40
2022-10-20T05:51:27.550Z,55.50
2022-10-20T05:53:58.681Z,55.50
2022-10-20T05:56:27.464Z,55.60
2022-10-20T05:58:54.806Z,55.60
2022-10-20T06:01:25.077Z,55.60
2022-10-20T06:04:00.226Z,55.60
2022-10-20T06:06:30.513Z,55.80
2022-10-20T06:08:59.592Z,55.60
2022-10-20T06:11:26.633Z,55.60
2022-10-20T06:13:53.762Z,55.60
2022-10-20T06:16:22.350Z,55.60
2022-10-20T06:18:49.762Z,55.70
2022-10-20T06:21:19.029Z,55.70
2022-10-20T06:23:45.874Z,55.80
2022-10-20T06:26:17.527Z,55.70
2022-10-20T06:28:45.869Z,55.80
2022-10-20T06:31:13.804Z,55.70
2022-10-20T06:33:41.206Z,55.80
2022-10-20T06:36:09.257Z,55.80
2022-10-20T06:38:36.691Z,55.90
2022-10-20T06:41:05.057Z,55.90
2022-10-20T06:43:31.958Z,55.90
2022-10-20T06:46:01.334Z,55.90
2022-10-20T06:48:28.526Z,55.90
2022-10-20T06:50:59.696Z,55.90
2022-10-20T06:53:27.950Z,56.00
2022-10-20T06:56:02.421Z,55.90
2022-10-20T06:58:29.838Z,56.10
2022-10-20T07:01:08.317Z,56.00
2022-10-20T07:03:38.491Z,56.10
2022-10-20T07:06:06.631Z,56.00
2022-10-20T07:08:35.260Z,56.20
2022-10-20T07:11:03.302Z,56.20
2022-10-20T07:13:31.450Z,56.20
2022-10-20T07:15:59.162Z,56.30
2022-10-20T07:18:27.719Z,56.30
2022-10-20T07:21:03.643Z,56.40
2022-10-20T07:23:31.744Z,56.60
2022-10-20T07:26:07.297Z,56.40
2022-10-20T07:28:35.853Z,56.50
2022-10-20T07:31:04.871Z,56.40
2022-10-20T07:33:31.818Z,56.40
2022-10-20T07:35:58.688Z,56.40
2022-10-20T07:38:25.535Z,56.30
2022-10-20T07:40:53.003Z,56.30
2022-10-20T07:43:19.839Z,56.30
2022-10-20T07:45:46.566Z,56.40
2022-10-20T07:48:13.156Z,56.40
2022-10-20T07:50:40.779Z,56.40
2022-10-20T07:53:07.493Z,56.50
2022-10-20T07:55:39.008Z,56.50
2022-10-20T07:58:06.347Z,56.40
2022-10-20T08:00:33.411Z,56.30
2022-10-20T08:03:00.095Z,56.40
2022-10-20T08:05:27.354Z,56.30
2022-10-20T08:07:54.218Z,56.30
2022-10-20T08:10:20.867Z,56.30
2022-10-20T08:12:47.708Z,56.30
2022-10-20T08:15:14.460Z,56.20
2022-10-20T08:17:41.384Z,56.10
2022-10-20T08:20:14.170Z,56.10
2022-10-20T08:22:40.906Z,56.00
2022-10-20T08:25:10.588Z,56.00
2022-10-20T08:27:37.202Z,55.90
2022-10-20T08:30:22.863Z,55.90
2022-10-20T08:32:52.590Z,55.90
2022-10-20T08:35:20.720Z,55.90
2022-10-20T08:37:47.682Z,55.90
2022-10-20T08:40:22.165Z,55.90
2022-10-20T08:42:49.857Z,55.90
2022-10-20T08:45:20.227Z,55.80
2022-10-20T08:47:50.423Z,55.80
2022-10-20T08:50:19.376Z,55.90
2022-10-20T08:52:51.101Z,55.80
2022-10-20T08:55:31.024Z,55.80
2022-10-20T08:58:02.562Z,55.80
2022-10-20T09:00:31.130Z,55.90
2022-10-20T09:03:10.808Z,56.10
2022-10-20T09:05:42.331Z,56.00
2022-10-20T09:08:09.405Z,55.70
2022-10-20T09:10:45.305Z,55.50
2022-10-20T09:13:23.537Z,55.20
2022-10-20T09:15:53.342Z,55.00
2022-10-20T09:18:20.574Z,55.00
2022-10-20T09:20:55.800Z,55.00
2022-10-20T09:23:40.988Z,54.70
2022-10-20T09:26:30.508Z,54.70
2022-10-20T09:29:14.675Z,54.60
2022-10-20T09:31:55.273Z,54.60
2022-10-20T09:34:35.043Z,54.70
2022-10-20T09:37:07.529Z,54.60
2022-10-20T09:39:46.184Z,54.50
2022-10-20T09:42:18.597Z,54.40
2022-10-20T09:44:57.405Z,54.70
2022-10-20T09:47:26.816Z,54.20
2022-10-20T09:50:01.861Z,54.20
2022-10-20T09:52:34.100Z,54.10
2022-10-20T09:55:23.621Z,54.10
2022-10-20T09:57:50.592Z,54.00
2022-10-20T10:00:38.643Z,54.00
2022-10-20T10:03:10.062Z,54.10
2022-10-20T10:05:36.817Z,54.10
2022-10-20T10:08:03.543Z,54.10
2022-10-20T10:10:32.181Z,54.20
2022-10-20T10:13:00.981Z,54.20
2022-10-20T10:15:34.335Z,54.30
2022-10-20T10:18:12.934Z,54.30
2022-10-20T10:20:40.413Z,54.30
2022-10-20T10:23:20.761Z,54.30
2022-10-20T10:25:49.023Z,54.20
2022-10-20T10:28:31.608Z,54.20
2022-10-20T10:31:08.995Z,54.30
2022-10-20T10:33:35.843Z,54.30
2022-10-20T10:36:06.862Z,54.20
2022-10-20T10:38:34.829Z,54.30
2022-10-20T10:41:07.405Z,54.30
2022-10-20T10:43:57.801Z,54.30
2022-10-20T10:46:31.600Z,54.30
2022-10-20T10:49:16.988Z,54.30
2022-10-20T10:52:05.406Z,54.40
2022-10-20T10:54:34.998Z,54.40
2022-10-20T10:57:21.159Z,54.30
2022-10-20T10:59:51.810Z,54.50
2022-10-20T11:02:59.452Z,54.40
2022-10-20T11:06:03.723Z,54.70
2022-10-20T11:09:12.518Z,54.70
2022-10-20T11:12:09.825Z,54.70
2022-10-20T11:15:03.021Z,54.50
2022-10-20T11:17:48.170Z,54.50
2022-10-20T11:20:41.591Z,54.70
2022-10-20T11:23:26.209Z,54.70
2022-10-20T11:26:05.792Z,54.60
2022-10-20T11:28:46.426Z,54.60
2022-10-20T11:31:39.685Z,54.40
2022-10-20T11:34:14.756Z,54.40
2022-10-20T11:36:52.896Z,54.40
2022-10-20T11:39:48.581Z,54.50
2022-10-20T11:42:21.101Z,54.50
2022-10-20T11:44:48.502Z,55.00
2022-10-20T11:47:26.616Z,54.50
2022-10-20T11:49:53.657Z,54.70
2022-10-20T11:52:58.896Z,54.70
2022-10-20T11:55:43.970Z,54.90
2022-10-20T11:58:51.533Z,54.90
2022-10-20T12:01:33.342Z,54.90
2022-10-20T12:04:37.480Z,54.80
2022-10-20T12:07:54.183Z,55.00
2022-10-20T12:10:49.677Z,55.00
2022-10-20T12:13:38.893Z,55.10
2022-10-20T12:16:05.928Z,55.10
2022-10-20T12:18:37.311Z,55.00
2022-10-20T12:21:10.471Z,55.10
2022-10-20T12:23:43.350Z,55.00
2022-10-20T12:26:42.527Z,54.90
2022-10-20T12:29:31.695Z,55.00
2022-10-20T12:32:29.693Z,55.10
2022-10-20T12:35:00.282Z,55.30
2022-10-20T12:37:34.962Z,55.10
2022-10-20T12:40:28.262Z,55.20
2022-10-20T12:42:56.028Z,55.30
2022-10-20T12:45:41.149Z,55.00
2022-10-20T12:48:18.628Z,55.60
2022-10-20T12:50:46.947Z,55.20
2022-10-20T12:53:21.853Z,55.20
2022-10-20T12:56:04.830Z,55.50
2022-10-20T12:58:37.260Z,55.80
2022-10-20T13:01:08.875Z,55.90
2022-10-20T13:03:39.884Z,56.10
2022-10-20T13:06:27.797Z,56.10
2022-10-20T13:09:03.699Z,56.70
2022-10-20T13:11:41.040Z,56.40
2022-10-20T13:14:13.618Z,56.30
2022-10-20T13:16:49.170Z,56.20
2022-10-20T13:19:30.395Z,56.30
2022-10-20T13:21:57.431Z,56.30
2022-10-20T13:24:34.395Z,56.20
2022-10-20T13:27:08.882Z,56.60
2022-10-20T13:29:43.520Z,56.60
2022-10-20T13:32:54.087Z,56.80
2022-10-20T13:35:54.446Z,57.20
2022-10-20T13:38:40.831Z,57.00
2022-10-20T13:41:24.461Z,57.10
2022-10-20T13:44:04.450Z,57.80
2022-10-20T13:46:57.954Z,57.50
2022-10-20T13:50:06.428Z,57.90
2022-10-20T13:52:37.690Z,58.10
2022-10-20T13:55:06.326Z,57.60
2022-10-20T13:57:35.183Z,57.60
2022-10-20T14:00:15.934Z,57.70
2022-10-20T14:03:14.975Z,57.80
2022-10-20T14:05:41.711Z,57.90
2022-10-20T14:08:10.564Z,57.50
2022-10-20T14:10:53.911Z,58.00
2022-10-20T14:13:24.265Z,58.00
2022-10-20T14:15:55.124Z,57.50
2022-10-20T14:18:26.719Z,57.60
2022-10-20T14:20:56.994Z,57.70
2022-10-20T14:23:24.814Z,57.60
2022-10-20T14:25:54.169Z,58.10
2022-10-20T14:28:22.161Z,57.70
2022-10-20T14:30:50.761Z,57.70
2022-10-20T14:33:18.178Z,57.80
2022-10-20T14:35:54.061Z,57.90
2022-10-20T14:38:23.431Z,58.10
2022-10-20T14:40:56.103Z,58.00
2022-10-20T14:43:39.501Z,58.20
2022-10-20T14:46:09.998Z,58.50
2022-10-20T14:48:50.057Z,58.10
2022-10-20T14:51:38.166Z,58.60
2022-10-20T14:54:20.702Z,58.60
2022-10-20T14:56:53.653Z,58.60
2022-10-20T14:59:27.041Z,58.20
2022-10-20T15:02:18.626Z,58.20
2022-10-20T15:04:47.626Z,58.50
2022-10-20T15:07:28.065Z,58.30
2022-10-20T15:10:02.941Z,58.80
2022-10-20T15:12:32.999Z,58.50
2022-10-20T15:15:06.994Z,58.50
2022-10-20T15:17:37.964Z,58.90
2022-10-20T15:20:37.368Z,58.80
2022-10-20T15:23:08.099Z,59.20
2022-10-20T15:25:49.902Z,58.60
2022-10-20T15:28:23.451Z,58.90
2022-10-20T15:30:50.433Z,58.80
2022-10-20T15:33:17.224Z,58.50
2022-10-20T15:35:48.222Z,58.60
2022-10-20T15:38:15.793Z,58.60
2022-10-20T15:40:43.294Z,58.60
2022-10-20T15:43:13.329Z,58.70
2022-10-20T15:45:47.105Z,58.80
2022-10-20T15:48:13.937Z,58.90
2022-10-20T15:50:40.954Z,58.90
2022-10-20T15:53:07.785Z,58.90
2022-10-20T15:55:37.723Z,59.00
2022-10-20T15:58:05.265Z,59.20
2022-10-20T16:00:31.899Z,59.20
2022-10-20T16:02:58.721Z,59.20
2022-10-20T16:05:26.682Z,59.10
2022-10-20T16:07:54.641Z,59.10
2022-10-20T16:10:26.056Z,59.10
2022-10-20T16:12:52.966Z,59.20
2022-10-20T16:15:19.640Z,59.10
2022-10-20T16:17:47.126Z,59.10
2022-10-20T16:20:14.859Z,59.30
2022-10-20T16:22:41.966Z,59.20
2022-10-20T16:25:09.194Z,59.10
2022-10-20T16:27:36.433Z,59.20
2022-10-20T16:30:04.586Z,59.30
2022-10-20T16:32:34.479Z,59.30
2022-10-20T16:35:03.408Z,59.30
2022-10-20T16:37:31.994Z,59.30
2022-10-20T16:39:59.694Z,59.40
2022-10-20T16:42:28.225Z,59.40
2022-10-20T16:44:54.988Z,59.40
2022-10-20T16:47:21.678Z,59.40
2022-10-20T16:49:48.569Z,59.40
2022-10-20T16:52:15.336Z,59.50
2022-10-20T16:57:13.919Z,59.60
2022-10-20T16:59:42.343Z,59.60
2022-10-20T17:02:12.000Z,59.70
2022-10-20T17:04:38.990Z,59.80
2022-10-20T17:07:05.731Z,59.80
2022-10-20T17:09:32.437Z,59.80
2022-10-20T17:11:59.267Z,59.90
2022-10-20T17:14:25.972Z,60.00
2022-10-20T17:16:53.265Z,60.10
2022-10-20T17:19:19.901Z,60.10
2022-10-20T17:21:46.878Z,60.00
2022-10-20T17:24:13.954Z,60.00
2022-10-20T17:26:41.330Z,60.00
2022-10-20T17:29:09.565Z,60.00
2022-10-20T17:31:37.790Z,60.10
2022-10-20T17:34:04.969Z,60.10
2022-10-20T17:36:32.379Z,60.10
2022-10-20T17:39:02.547Z,60.20
2022-10-20T17:41:30.189Z,60.40
2022-10-20T17:44:00.574Z,60.30
2022-10-20T17:46:27.322Z,60.40
2022-10-20T17:48:53.972Z,60.40
2022-10-20T17:51:23.402Z,60.60
2022-10-20T17:53:52.261Z,61.00
2022-10-20T17:56:18.863Z,61.00
2022-10-20T17:58:47.148Z,61.10
2022-10-20T18:01:23.457Z,61.30
2022-10-20T18:03:58.278Z,61.60
2022-10-20T18:06:31.233Z,61.70
2022-10-20T18:09:06.693Z,61.60
2022-10-20T18:11:35.072Z,61.80
2022-10-20T18:14:02.526Z,61.90
2022-10-20T18:16:31.247Z,61.90
2022-10-20T18:18:59.611Z,62.00
2022-10-20T18:21:27.886Z,62.00
2022-10-20T18:23:56.761Z,62.70
2022-10-20T18:26:24.547Z,62.10
2022-10-20T18:28:51.570Z,62.00
2022-10-20T18:31:24.134Z,62.10
2022-10-20T18:33:54.266Z,62.30
2022-10-20T18:36:20.897Z,62.20
2022-10-20T18:38:47.869Z,62.00
2022-10-20T18:41:29.347Z,62.00
2022-10-20T18:43:59.061Z,62.00
2022-10-20T18:46:26.984Z,61.80
2022-10-20T18:48:55.217Z,62.30
2022-10-20T18:51:22.273Z,61.60
2022-10-20T18:53:55.303Z,61.70
2022-10-20T18:56:24.078Z,62.00
2022-10-20T18:58:53.879Z,61.90
2022-10-20T19:01:23.193Z,62.00
2022-10-20T19:03:52.021Z,62.10
2022-10-20T19:06:22.985Z,62.10
2022-10-20T19:09:00.416Z,62.30
2022-10-20T19:11:30.505Z,62.20
2022-10-20T19:13:58.267Z,62.10
2022-10-20T19:16:30.574Z,62.00
2022-10-20T19:18:58.591Z,62.00
2022-10-20T19:21:27.165Z,61.90
2022-10-20T19:24:02.284Z,61.80
2022-10-20T19:26:35.217Z,62.00
2022-10-20T19:29:08.952Z,61.90
2022-10-20T19:31:48.763Z,62.10
2022-10-20T19:34:21.945Z,62.40
2022-10-20T19:36:48.895Z,62.20
2022-10-20T19:39:18.710Z,61.90
2022-10-20T19:41:46.600Z,62.10
2022-10-20T19:44:15.440Z,62.00
2022-10-20T19:46:47.393Z,62.00
2022-10-20T19:49:14.819Z,62.30
2022-10-20T19:51:41.897Z,62.00
2022-10-20T19:54:08.658Z,61.90
2022-10-20T19:56:35.763Z,62.00
2022-10-20T19:59:04.247Z,62.20
2022-10-20T20:01:32.019Z,62.40
2022-10-20T20:03:59.620Z,62.50
2022-10-20T20:06:26.654Z,62.70
2022-10-20T20:08:59.054Z,63.00
2022-10-20T20:11:29.569Z,63.40
2022-10-20T20:14:02.274Z,63.40
2022-10-20T20:16:29.971Z,63.80
2022-10-20T20:18:56.991Z,63.50
2022-10-20T20:21:24.470Z,63.40
2022-10-20T20:24:01.159Z,63.20
2022-10-20T20:26:30.472Z,63.40
2022-10-20T20:28:57.676Z,62.70
2022-10-20T20:31:25.657Z,63.30
2022-10-20T20:33:53.157Z,62.90
2022-10-20T20:36:20.232Z,63.10
2022-10-20T20:38:47.045Z,63.10
2022-10-20T20:41:16.609Z,63.10
2022-10-20T20:43:46.490Z,63.30
2022-10-20T20:46:15.635Z,63.10
2022-10-20T20:48:42.764Z,63.20
2022-10-20T20:51:09.371Z,62.90
2022-10-20T20:53:37.096Z,63.00
2022-10-20T20:56:06.990Z,63.30
2022-10-20T20:58:34.282Z,63.70
2022-10-20T21:01:11.251Z,63.80
2022-10-20T21:03:39.073Z,64.00
2022-10-20T21:06:33.093Z,64.10
2022-10-20T21:09:01.200Z,65.10
2022-10-20T21:11:28.282Z,64.30
2022-10-20T21:13:56.384Z,64.40
2022-10-20T21:16:28.641Z,64.70
2022-10-20T21:18:57.498Z,65.60
2022-10-20T21:21:26.544Z,65.10
2022-10-20T21:23:54.741Z,65.20
2022-10-20T21:26:22.158Z,65.20
2022-10-20T21:28:49.848Z,65.00
2022-10-20T21:31:18.864Z,65.00
2022-10-20T21:33:49.268Z,65.10
2022-10-20T21:36:17.246Z,65.10
2022-10-20T21:38:44.676Z,65.20
2022-10-20T21:41:17.274Z,65.30
2022-10-20T21:43:49.818Z,65.50
2022-10-20T21:46:18.031Z,65.60
2022-10-20T21:48:46.328Z,65.40
2022-10-20T21:51:14.220Z,65.70
2022-10-20T21:53:41.222Z,65.90
2022-10-20T21:56:08.798Z,65.90
2022-10-20T21:58:36.472Z,66.30
2022-10-20T22:01:14.807Z,66.60
2022-10-20T22:03:42.567Z,67.50
2022-10-20T22:06:11.096Z,66.90
2022-10-20T22:08:43.713Z,67.00
2022-10-20T22:11:13.579Z,67.40
2022-10-20T22:13:40.322Z,67.10
2022-10-20T22:16:09.445Z,67.10
2022-10-20T22:18:36.050Z,67.30
2022-10-20T22:21:11.098Z,67.50
2022-10-20T22:23:41.130Z,67.90
2022-10-20T22:26:08.708Z,67.70
2022-10-20T22:28:35.507Z,68.00
2022-10-20T22:31:02.298Z,68.00
2022-10-20T22:33:29.055Z,68.30
2022-10-20T22:35:55.929Z,68.40
2022-10-20T22:38:22.540Z,68.60
2022-10-20T22:40:49.564Z,68.70
2022-10-20T22:43:16.192Z,69.00
2022-10-20T22:45:42.965Z,69.00
2022-10-20T22:48:10.133Z,69.00
2022-10-20T22:50:36.777Z,69.10
2022-10-20T22:53:03.657Z,69.20
2022-10-20T22:55:30.396Z,69.20
2022-10-20T23:00:28.886Z,69.20
2022-10-20T23:02:56.189Z,69.30
2022-10-20T23:05:22.885Z,69.40
2022-10-20T23:07:50.220Z,69.40
2022-10-20T23:10:17.020Z,69.40
2022-10-20T23:12:43.652Z,69.40
2022-10-20T23:15:10.712Z,69.30
2022-10-20T23:17:37.765Z,69.40
2022-10-20T23:20:05.285Z,69.40
2022-10-20T23:22:31.956Z,69.50
2022-10-20T23:24:58.810Z,70.30
2022-10-20T23:27:25.533Z,70.00
2022-10-20T23:29:52.296Z,70.30
2022-10-20T23:32:19.028Z,70.30
2022-10-20T23:34:45.646Z,70.20
2022-10-20T23:37:12.463Z,70.10
2022-10-20T23:39:39.101Z,70.00
2022-10-20T23:42:07.343Z,70.20
2022-10-20T23:44:34.420Z,70.50
2022-10-20T23:47:01.298Z,70.70
2022-10-20T23:49:27.900Z,70.60
2022-10-20T23:51:54.846Z,70.60
2022-10-20T23:54:21.516Z,70.50
2022-10-20T23:56:48.336Z,70.30
2022-10-20T23:59:15.013Z,70.30
